sensor_id;sensor_type;location;lat;lon;timestamp;P1;durP1;ratioP1;P2;durP2;ratioP2
8698;SDS011;4386;51.236;6.742;2022-08-01T00:00:25;5.53;;;4.87;;
8698;SDS011;4386;51.236;6.742;2022-08-01T00:01:27;5.40;;;4.53;;
8698;SDS011;4386;51.236;6.742;2022-08-01T00:02:29;12.13;;;5.17;;
8698;SDS011;4386;51.236;6.742;2022-08-01T00:03:32;6.20;;;4.10;;
8698;SDS011;4386;51.236;6.742;2022-08-01T00:04:36;6.97;;;4.13;;
8698;SDS011;4386;51.236;6.742;2022-08-01T00:05:38;5.03;;;4.63;;
8698;SDS011;4386;51.236;6.742;2022-08-01T00:06:41;5.33;;;4.83;;
8698;SDS011;4386;51.236;6.742;2022-08-01T00:07:44;7.17;;;4.70;;
8698;SDS011;4386;51.236;6.742;2022-08-01T00:08:46;4.87;;;4.30;;
8698;SDS011;4386;51.236;6.742;2022-08-01T00:09:48;5.30;;;4.40;;
8698;SDS011;4386;51.236;6.742;2022-08-01T00:10:50;10.67;;;5.13;;
8698;SDS011;4386;51.236;6.742;2022-08-01T00:11:52;5.80;;;4.97;;
8698;SDS011;4386;51.236;6.742;2022-08-01T00:13:00;6.30;;;4.57;;
8698;SDS011;4386;51.236;6.742;2022-08-01T00:14:02;6.27;;;4.30;;
8698;SDS011;4386;51.236;6.742;2022-08-01T00:15:05;5.90;;;4.70;;
8698;SDS011;4386;51.236;6.742;2022-08-01T00:16:08;4.80;;;4.40;;
8698;SDS011;4386;51.236;6.742;2022-08-01T00:17:11;4.53;;;4.10;;
8698;SDS011;4386;51.236;6.742;2022-08-01T00:18:14;5.47;;;4.30;;
8698;SDS011;4386;51.236;6.742;2022-08-01T00:19:15;7.33;;;4.17;;
8698;SDS011;4386;51.236;6.742;2022-08-01T00:20:19;5.20;;;4.70;;
8698;SDS011;4386;51.236;6.742;2022-08-01T00:21:21;5.20;;;4.30;;
8698;SDS011;4386;51.236;6.742;2022-08-01T00:22:23;9.13;;;4.47;;
8698;SDS011;4386;51.236;6.742;2022-08-01T00:23:25;6.10;;;4.87;;
8698;SDS011;4386;51.236;6.742;2022-08-01T00:24:28;5.20;;;4.03;;
8698;SDS011;4386;51.236;6.742;2022-08-01T00:25:29;10.67;;;4.37;;
8698;SDS011;4386;51.236;6.742;2022-08-01T00:26:34;6.20;;;4.87;;
8698;SDS011;4386;51.236;6.742;2022-08-01T00:27:36;4.70;;;4.30;;
8698;SDS011;4386;51.236;6.742;2022-08-01T00:28:39;9.13;;;4.80;;
8698;SDS011;4386;51.236;6.742;2022-08-01T00:29:40;4.40;;;4.00;;
8698;SDS011;4386;51.236;6.742;2022-08-01T00:31:03;5.60;;;4.60;;
8698;SDS011;4386;51.236;6.742;2022-08-01T00:32:05;6.73;;;4.63;;
8698;SDS011;4386;51.236;6.742;2022-08-01T00:33:08;6.07;;;4.30;;
8698;SDS011;4386;51.236;6.742;2022-08-01T00:34:10;4.63;;;4.23;;
8698;SDS011;4386;51.236;6.742;2022-08-01T00:35:13;6.50;;;4.70;;
8698;SDS011;4386;51.236;6.742;2022-08-01T00:36:15;6.93;;;4.60;;
8698;SDS011;4386;51.236;6.742;2022-08-01T00:37:18;4.90;;;4.17;;
8698;SDS011;4386;51.236;6.742;2022-08-01T00:38:20;6.13;;;4.63;;
8698;SDS011;4386;51.236;6.742;2022-08-01T00:39:22;7.07;;;4.13;;
8698;SDS011;4386;51.236;6.742;2022-08-01T00:40:24;6.73;;;4.20;;
8698;SDS011;4386;51.236;6.742;2022-08-01T00:41:26;8.10;;;5.00;;
8698;SDS011;4386;51.236;6.742;2022-08-01T00:42:29;6.20;;;4.87;;
8698;SDS011;4386;51.236;6.742;2022-08-01T00:43:31;5.80;;;5.30;;
8698;SDS011;4386;51.236;6.742;2022-08-01T00:44:33;7.30;;;4.80;;
8698;SDS011;4386;51.236;6.742;2022-08-01T00:45:35;5.17;;;4.60;;
8698;SDS011;4386;51.236;6.742;2022-08-01T00:46:38;6.30;;;5.20;;
8698;SDS011;4386;51.236;6.742;2022-08-01T00:47:40;7.13;;;4.67;;
8698;SDS011;4386;51.236;6.742;2022-08-01T00:48:42;8.40;;;5.20;;
8698;SDS011;4386;51.236;6.742;2022-08-01T00:49:45;5.20;;;4.70;;
8698;SDS011;4386;51.236;6.742;2022-08-01T00:50:47;7.60;;;4.60;;
8698;SDS011;4386;51.236;6.742;2022-08-01T00:51:51;5.80;;;4.47;;
8698;SDS011;4386;51.236;6.742;2022-08-01T00:52:53;9.70;;;4.77;;
8698;SDS011;4386;51.236;6.742;2022-08-01T00:53:56;6.70;;;5.07;;
8698;SDS011;4386;51.236;6.742;2022-08-01T00:54:59;5.87;;;4.83;;
8698;SDS011;4386;51.236;6.742;2022-08-01T00:56:02;6.60;;;4.60;;
8698;SDS011;4386;51.236;6.742;2022-08-01T00:57:05;7.40;;;4.60;;
8698;SDS011;4386;51.236;6.742;2022-08-01T00:58:11;5.80;;;5.20;;
8698;SDS011;4386;51.236;6.742;2022-08-01T00:59:13;6.63;;;4.50;;
8698;SDS011;4386;51.236;6.742;2022-08-01T01:00:20;6.03;;;5.17;;
8698;SDS011;4386;51.236;6.742;2022-08-01T01:01:27;6.17;;;4.23;;
8698;SDS011;4386;51.236;6.742;2022-08-01T01:02:40;6.30;;;4.53;;
8698;SDS011;4386;51.236;6.742;2022-08-01T01:03:43;8.80;;;4.47;;
8698;SDS011;4386;51.236;6.742;2022-08-01T01:04:59;7.33;;;5.13;;
8698;SDS011;4386;51.236;6.742;2022-08-01T01:06:05;6.80;;;4.90;;
8698;SDS011;4386;51.236;6.742;2022-08-01T01:07:19;6.77;;;5.43;;
8698;SDS011;4386;51.236;6.742;2022-08-01T01:08:30;8.03;;;4.40;;
8698;SDS011;4386;51.236;6.742;2022-08-01T01:09:42;7.07;;;5.40;;
8698;SDS011;4386;51.236;6.742;2022-08-01T01:10:52;5.70;;;4.37;;
8698;SDS011;4386;51.236;6.742;2022-08-01T01:12:00;7.60;;;4.83;;
8698;SDS011;4386;51.236;6.742;2022-08-01T01:13:09;10.10;;;5.90;;
8698;SDS011;4386;51.236;6.742;2022-08-01T01:14:16;9.90;;;5.17;;
8698;SDS011;4386;51.236;6.742;2022-08-01T01:15:27;7.53;;;4.87;;
8698;SDS011;4386;51.236;6.742;2022-08-01T01:16:32;8.50;;;5.50;;
8698;SDS011;4386;51.236;6.742;2022-08-01T01:17:37;6.63;;;4.80;;
8698;SDS011;4386;51.236;6.742;2022-08-01T01:18:53;6.63;;;5.17;;
8698;SDS011;4386;51.236;6.742;2022-08-01T01:19:57;9.50;;;4.90;;
8698;SDS011;4386;51.236;6.742;2022-08-01T01:21:07;12.07;;;4.73;;
8698;SDS011;4386;51.236;6.742;2022-08-01T01:22:18;9.00;;;4.87;;
8698;SDS011;4386;51.236;6.742;2022-08-01T01:23:31;7.23;;;5.03;;
8698;SDS011;4386;51.236;6.742;2022-08-01T01:24:48;6.90;;;5.50;;
8698;SDS011;4386;51.236;6.742;2022-08-01T01:26:17;4.87;;;4.40;;
8698;SDS011;4386;51.236;6.742;2022-08-01T01:27:36;5.60;;;4.90;;
8698;SDS011;4386;51.236;6.742;2022-08-01T01:30:11;8.37;;;6.17;;
8698;SDS011;4386;51.236;6.742;2022-08-01T01:31:13;9.37;;;4.93;;
8698;SDS011;4386;51.236;6.742;2022-08-01T01:32:19;8.70;;;5.47;;
8698;SDS011;4386;51.236;6.742;2022-08-01T01:33:31;7.07;;;5.70;;
8698;SDS011;4386;51.236;6.742;2022-08-01T01:34:48;5.43;;;4.80;;
8698;SDS011;4386;51.236;6.742;2022-08-01T01:35:53;6.00;;;5.27;;
8698;SDS011;4386;51.236;6.742;2022-08-01T01:37:01;7.73;;;5.53;;
8698;SDS011;4386;51.236;6.742;2022-08-01T01:38:07;10.10;;;4.90;;
8698;SDS011;4386;51.236;6.742;2022-08-01T01:39:13;5.63;;;4.90;;
8698;SDS011;4386;51.236;6.742;2022-08-01T01:40:15;9.37;;;5.40;;
8698;SDS011;4386;51.236;6.742;2022-08-01T01:41:22;5.33;;;4.90;;
8698;SDS011;4386;51.236;6.742;2022-08-01T01:42:25;6.90;;;5.10;;
8698;SDS011;4386;51.236;6.742;2022-08-01T01:43:29;13.23;;;5.63;;
8698;SDS011;4386;51.236;6.742;2022-08-01T01:44:35;10.40;;;5.47;;
8698;SDS011;4386;51.236;6.742;2022-08-01T01:45:39;7.30;;;5.30;;
8698;SDS011;4386;51.236;6.742;2022-08-01T01:46:42;8.90;;;5.40;;
8698;SDS011;4386;51.236;6.742;2022-08-01T01:47:45;8.50;;;5.90;;
8698;SDS011;4386;51.236;6.742;2022-08-01T01:48:48;9.93;;;5.80;;
8698;SDS011;4386;51.236;6.742;2022-08-01T01:49:52;12.33;;;6.10;;
8698;SDS011;4386;51.236;6.742;2022-08-01T01:50:56;6.63;;;5.93;;
8698;SDS011;4386;51.236;6.742;2022-08-01T01:52:00;7.20;;;5.90;;
8698;SDS011;4386;51.236;6.742;2022-08-01T01:53:03;7.47;;;6.27;;
8698;SDS011;4386;51.236;6.742;2022-08-01T01:54:15;7.50;;;5.43;;
8698;SDS011;4386;51.236;6.742;2022-08-01T01:55:17;7.17;;;5.33;;
8698;SDS011;4386;51.236;6.742;2022-08-01T01:56:23;11.63;;;6.73;;
8698;SDS011;4386;51.236;6.742;2022-08-01T01:57:26;6.53;;;5.83;;
8698;SDS011;4386;51.236;6.742;2022-08-01T01:58:31;7.03;;;5.70;;
8698;SDS011;4386;51.236;6.742;2022-08-01T01:59:36;7.70;;;5.43;;
8698;SDS011;4386;51.236;6.742;2022-08-01T02:00:42;6.90;;;5.77;;
8698;SDS011;4386;51.236;6.742;2022-08-01T02:01:46;6.83;;;6.00;;
8698;SDS011;4386;51.236;6.742;2022-08-01T02:03:06;8.80;;;6.57;;
8698;SDS011;4386;51.236;6.742;2022-08-01T02:04:10;8.23;;;6.50;;
8698;SDS011;4386;51.236;6.742;2022-08-01T02:05:14;8.03;;;5.50;;
8698;SDS011;4386;51.236;6.742;2022-08-01T02:06:16;7.90;;;5.37;;
8698;SDS011;4386;51.236;6.742;2022-08-01T02:07:20;6.60;;;5.90;;
8698;SDS011;4386;51.236;6.742;2022-08-01T02:08:25;7.50;;;5.53;;
8698;SDS011;4386;51.236;6.742;2022-08-01T02:09:32;7.70;;;5.90;;
8698;SDS011;4386;51.236;6.742;2022-08-01T02:10:37;12.83;;;6.30;;
8698;SDS011;4386;51.236;6.742;2022-08-01T02:11:41;6.37;;;5.70;;
8698;SDS011;4386;51.236;6.742;2022-08-01T02:13:05;8.27;;;5.27;;
8698;SDS011;4386;51.236;6.742;2022-08-01T02:14:08;8.67;;;6.57;;
8698;SDS011;4386;51.236;6.742;2022-08-01T02:15:13;7.63;;;6.00;;
8698;SDS011;4386;51.236;6.742;2022-08-01T02:16:16;8.97;;;5.63;;
8698;SDS011;4386;51.236;6.742;2022-08-01T02:17:18;6.80;;;5.87;;
8698;SDS011;4386;51.236;6.742;2022-08-01T02:18:23;10.23;;;6.70;;
8698;SDS011;4386;51.236;6.742;2022-08-01T02:19:24;10.30;;;6.07;;
8698;SDS011;4386;51.236;6.742;2022-08-01T02:20:29;11.40;;;6.40;;
8698;SDS011;4386;51.236;6.742;2022-08-01T02:21:33;8.80;;;5.90;;
8698;SDS011;4386;51.236;6.742;2022-08-01T02:22:40;7.00;;;5.70;;
8698;SDS011;4386;51.236;6.742;2022-08-01T02:23:45;11.70;;;5.87;;
8698;SDS011;4386;51.236;6.742;2022-08-01T02:24:50;8.23;;;6.10;;
8698;SDS011;4386;51.236;6.742;2022-08-01T02:25:56;12.50;;;6.40;;
8698;SDS011;4386;51.236;6.742;2022-08-01T02:27:11;6.80;;;5.43;;
8698;SDS011;4386;51.236;6.742;2022-08-01T02:28:17;11.00;;;6.17;;
8698;SDS011;4386;51.236;6.742;2022-08-01T02:29:27;13.87;;;6.13;;
8698;SDS011;4386;51.236;6.742;2022-08-01T02:30:41;10.10;;;6.23;;
8698;SDS011;4386;51.236;6.742;2022-08-01T02:31:47;6.90;;;5.67;;
8698;SDS011;4386;51.236;6.742;2022-08-01T02:32:51;10.23;;;6.60;;
8698;SDS011;4386;51.236;6.742;2022-08-01T02:34:00;11.33;;;6.50;;
8698;SDS011;4386;51.236;6.742;2022-08-01T02:35:09;11.13;;;6.57;;
8698;SDS011;4386;51.236;6.742;2022-08-01T02:36:14;8.87;;;6.70;;
8698;SDS011;4386;51.236;6.742;2022-08-01T02:37:33;10.13;;;7.60;;
8698;SDS011;4386;51.236;6.742;2022-08-01T02:38:44;9.00;;;6.00;;
8698;SDS011;4386;51.236;6.742;2022-08-01T02:39:47;10.73;;;7.30;;
8698;SDS011;4386;51.236;6.742;2022-08-01T02:40:53;9.17;;;7.03;;
8698;SDS011;4386;51.236;6.742;2022-08-01T02:42:00;13.30;;;7.43;;
8698;SDS011;4386;51.236;6.742;2022-08-01T02:43:05;9.10;;;6.80;;
8698;SDS011;4386;51.236;6.742;2022-08-01T02:44:14;9.47;;;7.80;;
8698;SDS011;4386;51.236;6.742;2022-08-01T02:45:20;15.37;;;7.43;;
8698;SDS011;4386;51.236;6.742;2022-08-01T02:46:29;14.53;;;7.27;;
8698;SDS011;4386;51.236;6.742;2022-08-01T02:47:36;15.50;;;8.30;;
8698;SDS011;4386;51.236;6.742;2022-08-01T02:48:42;11.70;;;7.60;;
8698;SDS011;4386;51.236;6.742;2022-08-01T02:49:45;10.30;;;7.17;;
8698;SDS011;4386;51.236;6.742;2022-08-01T02:50:55;11.67;;;7.47;;
8698;SDS011;4386;51.236;6.742;2022-08-01T02:51:59;16.30;;;8.27;;
8698;SDS011;4386;51.236;6.742;2022-08-01T02:53:06;16.93;;;7.70;;
8698;SDS011;4386;51.236;6.742;2022-08-01T02:54:11;14.13;;;8.10;;
8698;SDS011;4386;51.236;6.742;2022-08-01T02:55:14;10.97;;;7.20;;
8698;SDS011;4386;51.236;6.742;2022-08-01T02:56:18;10.63;;;7.77;;
8698;SDS011;4386;51.236;6.742;2022-08-01T02:57:21;8.90;;;8.00;;
8698;SDS011;4386;51.236;6.742;2022-08-01T02:58:45;13.30;;;7.80;;
8698;SDS011;4386;51.236;6.742;2022-08-01T02:59:50;12.27;;;7.73;;
8698;SDS011;4386;51.236;6.742;2022-08-01T03:00:56;10.10;;;8.27;;
8698;SDS011;4386;51.236;6.742;2022-08-01T03:02:01;14.80;;;8.00;;
8698;SDS011;4386;51.236;6.742;2022-08-01T03:03:06;11.67;;;8.10;;
8698;SDS011;4386;51.236;6.742;2022-08-01T03:04:09;15.20;;;7.83;;
8698;SDS011;4386;51.236;6.742;2022-08-01T03:05:13;10.30;;;6.87;;
8698;SDS011;4386;51.236;6.742;2022-08-01T03:06:16;8.53;;;7.60;;
8698;SDS011;4386;51.236;6.742;2022-08-01T03:07:19;12.37;;;7.17;;
8698;SDS011;4386;51.236;6.742;2022-08-01T03:08:22;10.47;;;7.03;;
8698;SDS011;4386;51.236;6.742;2022-08-01T03:09:27;12.90;;;8.30;;
8698;SDS011;4386;51.236;6.742;2022-08-01T03:10:33;10.27;;;7.70;;
8698;SDS011;4386;51.236;6.742;2022-08-01T03:11:39;12.93;;;7.40;;
8698;SDS011;4386;51.236;6.742;2022-08-01T03:12:43;10.83;;;7.67;;
8698;SDS011;4386;51.236;6.742;2022-08-01T03:13:48;11.80;;;7.73;;
8698;SDS011;4386;51.236;6.742;2022-08-01T03:14:54;12.20;;;7.80;;
8698;SDS011;4386;51.236;6.742;2022-08-01T03:15:59;13.70;;;8.20;;
8698;SDS011;4386;51.236;6.742;2022-08-01T03:17:05;15.43;;;9.23;;
8698;SDS011;4386;51.236;6.742;2022-08-01T03:18:09;12.87;;;8.20;;
8698;SDS011;4386;51.236;6.742;2022-08-01T03:19:14;11.47;;;7.50;;
8698;SDS011;4386;51.236;6.742;2022-08-01T03:20:17;13.40;;;9.30;;
8698;SDS011;4386;51.236;6.742;2022-08-01T03:21:22;18.03;;;8.80;;
8698;SDS011;4386;51.236;6.742;2022-08-01T03:22:25;13.63;;;8.20;;
8698;SDS011;4386;51.236;6.742;2022-08-01T03:23:29;11.20;;;8.40;;
8698;SDS011;4386;51.236;6.742;2022-08-01T03:24:39;10.73;;;8.50;;
8698;SDS011;4386;51.236;6.742;2022-08-01T03:25:43;14.43;;;8.60;;
8698;SDS011;4386;51.236;6.742;2022-08-01T03:26:46;13.00;;;9.67;;
8698;SDS011;4386;51.236;6.742;2022-08-01T03:27:51;15.50;;;9.67;;
8698;SDS011;4386;51.236;6.742;2022-08-01T03:28:57;14.20;;;7.83;;
8698;SDS011;4386;51.236;6.742;2022-08-01T03:30:04;8.70;;;7.40;;
8698;SDS011;4386;51.236;6.742;2022-08-01T03:31:07;12.10;;;9.37;;
8698;SDS011;4386;51.236;6.742;2022-08-01T03:32:12;12.33;;;8.90;;
8698;SDS011;4386;51.236;6.742;2022-08-01T03:33:16;11.73;;;7.87;;
8698;SDS011;4386;51.236;6.742;2022-08-01T03:34:19;19.47;;;8.80;;
8698;SDS011;4386;51.236;6.742;2022-08-01T03:35:23;14.53;;;8.10;;
8698;SDS011;4386;51.236;6.742;2022-08-01T03:36:31;10.73;;;8.77;;
8698;SDS011;4386;51.236;6.742;2022-08-01T03:37:40;14.80;;;9.30;;
8698;SDS011;4386;51.236;6.742;2022-08-01T03:39:04;11.10;;;8.40;;
8698;SDS011;4386;51.236;6.742;2022-08-01T03:40:13;13.43;;;9.17;;
8698;SDS011;4386;51.236;6.742;2022-08-01T03:41:21;11.80;;;9.20;;
8698;SDS011;4386;51.236;6.742;2022-08-01T03:42:28;12.27;;;9.07;;
8698;SDS011;4386;51.236;6.742;2022-08-01T03:43:36;12.57;;;9.50;;
8698;SDS011;4386;51.236;6.742;2022-08-01T03:44:43;16.10;;;9.10;;
8698;SDS011;4386;51.236;6.742;2022-08-01T03:45:51;12.80;;;10.10;;
8698;SDS011;4386;51.236;6.742;2022-08-01T03:46:56;15.10;;;9.47;;
8698;SDS011;4386;51.236;6.742;2022-08-01T03:48:03;18.00;;;10.00;;
8698;SDS011;4386;51.236;6.742;2022-08-01T03:49:10;19.30;;;9.87;;
8698;SDS011;4386;51.236;6.742;2022-08-01T03:50:15;20.23;;;10.50;;
8698;SDS011;4386;51.236;6.742;2022-08-01T03:51:21;14.17;;;9.90;;
8698;SDS011;4386;51.236;6.742;2022-08-01T03:52:24;21.83;;;11.33;;
8698;SDS011;4386;51.236;6.742;2022-08-01T03:53:30;15.17;;;10.60;;
8698;SDS011;4386;51.236;6.742;2022-08-01T03:54:35;21.37;;;11.23;;
8698;SDS011;4386;51.236;6.742;2022-08-01T03:55:40;14.20;;;10.40;;
8698;SDS011;4386;51.236;6.742;2022-08-01T03:56:45;17.57;;;10.13;;
8698;SDS011;4386;51.236;6.742;2022-08-01T03:57:49;14.57;;;10.97;;
8698;SDS011;4386;51.236;6.742;2022-08-01T03:58:52;15.07;;;11.27;;
8698;SDS011;4386;51.236;6.742;2022-08-01T03:59:55;16.40;;;10.80;;
8698;SDS011;4386;51.236;6.742;2022-08-01T04:00:59;16.23;;;10.10;;
8698;SDS011;4386;51.236;6.742;2022-08-01T04:02:02;17.27;;;11.27;;
8698;SDS011;4386;51.236;6.742;2022-08-01T04:03:07;16.83;;;12.50;;
8698;SDS011;4386;51.236;6.742;2022-08-01T04:04:10;19.60;;;11.53;;
8698;SDS011;4386;51.236;6.742;2022-08-01T04:05:13;19.70;;;12.23;;
8698;SDS011;4386;51.236;6.742;2022-08-01T04:06:15;15.80;;;11.90;;
8698;SDS011;4386;51.236;6.742;2022-08-01T04:07:22;16.33;;;11.77;;
8698;SDS011;4386;51.236;6.742;2022-08-01T04:08:33;17.60;;;12.50;;
8698;SDS011;4386;51.236;6.742;2022-08-01T04:09:36;19.30;;;11.20;;
8698;SDS011;4386;51.236;6.742;2022-08-01T04:10:38;20.43;;;12.53;;
8698;SDS011;4386;51.236;6.742;2022-08-01T04:11:40;19.63;;;12.60;;
8698;SDS011;4386;51.236;6.742;2022-08-01T04:12:42;17.20;;;11.50;;
8698;SDS011;4386;51.236;6.742;2022-08-01T04:13:45;22.80;;;12.50;;
8698;SDS011;4386;51.236;6.742;2022-08-01T04:14:47;22.03;;;13.13;;
8698;SDS011;4386;51.236;6.742;2022-08-01T04:15:50;21.43;;;12.27;;
8698;SDS011;4386;51.236;6.742;2022-08-01T04:16:51;17.60;;;13.00;;
8698;SDS011;4386;51.236;6.742;2022-08-01T04:17:54;18.93;;;12.70;;
8698;SDS011;4386;51.236;6.742;2022-08-01T04:18:57;16.63;;;12.80;;
8698;SDS011;4386;51.236;6.742;2022-08-01T04:20:00;18.23;;;12.40;;
8698;SDS011;4386;51.236;6.742;2022-08-01T04:21:02;23.37;;;12.27;;
8698;SDS011;4386;51.236;6.742;2022-08-01T04:22:05;20.77;;;11.83;;
8698;SDS011;4386;51.236;6.742;2022-08-01T04:23:08;21.23;;;13.00;;
8698;SDS011;4386;51.236;6.742;2022-08-01T04:24:12;17.67;;;13.10;;
8698;SDS011;4386;51.236;6.742;2022-08-01T04:25:17;16.70;;;12.80;;
8698;SDS011;4386;51.236;6.742;2022-08-01T04:26:25;16.87;;;12.60;;
8698;SDS011;4386;51.236;6.742;2022-08-01T04:27:30;18.93;;;13.90;;
8698;SDS011;4386;51.236;6.742;2022-08-01T04:28:52;17.67;;;12.47;;
8698;SDS011;4386;51.236;6.742;2022-08-01T04:29:57;22.33;;;13.07;;
8698;SDS011;4386;51.236;6.742;2022-08-01T04:31:01;23.60;;;14.77;;
8698;SDS011;4386;51.236;6.742;2022-08-01T04:32:08;21.37;;;12.47;;
8698;SDS011;4386;51.236;6.742;2022-08-01T04:33:14;20.13;;;13.60;;
8698;SDS011;4386;51.236;6.742;2022-08-01T04:34:20;28.27;;;13.40;;
8698;SDS011;4386;51.236;6.742;2022-08-01T04:35:24;23.60;;;14.37;;
8698;SDS011;4386;51.236;6.742;2022-08-01T04:36:47;19.33;;;13.50;;
8698;SDS011;4386;51.236;6.742;2022-08-01T04:37:50;19.70;;;12.67;;
8698;SDS011;4386;51.236;6.742;2022-08-01T04:38:55;19.23;;;13.10;;
8698;SDS011;4386;51.236;6.742;2022-08-01T04:40:02;22.67;;;13.93;;
8698;SDS011;4386;51.236;6.742;2022-08-01T04:41:06;22.40;;;13.80;;
8698;SDS011;4386;51.236;6.742;2022-08-01T04:42:11;19.67;;;14.13;;
8698;SDS011;4386;51.236;6.742;2022-08-01T04:43:16;19.90;;;14.20;;
8698;SDS011;4386;51.236;6.742;2022-08-01T04:44:19;17.87;;;13.10;;
8698;SDS011;4386;51.236;6.742;2022-08-01T04:45:23;22.83;;;15.00;;
8698;SDS011;4386;51.236;6.742;2022-08-01T04:46:26;22.93;;;14.00;;
8698;SDS011;4386;51.236;6.742;2022-08-01T04:47:29;19.83;;;12.63;;
8698;SDS011;4386;51.236;6.742;2022-08-01T04:48:33;23.00;;;14.57;;
8698;SDS011;4386;51.236;6.742;2022-08-01T04:49:38;18.63;;;13.67;;
8698;SDS011;4386;51.236;6.742;2022-08-01T04:50:49;21.07;;;12.73;;
8698;SDS011;4386;51.236;6.742;2022-08-01T04:51:53;21.53;;;14.30;;
8698;SDS011;4386;51.236;6.742;2022-08-01T04:52:58;24.47;;;14.50;;
8698;SDS011;4386;51.236;6.742;2022-08-01T04:54:00;16.10;;;13.50;;
8698;SDS011;4386;51.236;6.742;2022-08-01T04:55:03;25.00;;;14.30;;
8698;SDS011;4386;51.236;6.742;2022-08-01T04:56:07;19.17;;;13.50;;
8698;SDS011;4386;51.236;6.742;2022-08-01T04:57:09;18.83;;;13.80;;
8698;SDS011;4386;51.236;6.742;2022-08-01T04:58:12;21.97;;;14.90;;
8698;SDS011;4386;51.236;6.742;2022-08-01T04:59:19;23.50;;;14.70;;
8698;SDS011;4386;51.236;6.742;2022-08-01T05:00:39;21.40;;;13.93;;
8698;SDS011;4386;51.236;6.742;2022-08-01T05:01:41;25.97;;;12.83;;
8698;SDS011;4386;51.236;6.742;2022-08-01T05:02:45;17.00;;;13.10;;
8698;SDS011;4386;51.236;6.742;2022-08-01T05:03:48;20.10;;;13.80;;
8698;SDS011;4386;51.236;6.742;2022-08-01T05:04:51;28.10;;;14.57;;
8698;SDS011;4386;51.236;6.742;2022-08-01T05:05:54;23.97;;;14.10;;
8698;SDS011;4386;51.236;6.742;2022-08-01T05:06:55;23.37;;;14.10;;
8698;SDS011;4386;51.236;6.742;2022-08-01T05:07:58;19.40;;;13.97;;
8698;SDS011;4386;51.236;6.742;2022-08-01T05:09:00;21.60;;;13.77;;
8698;SDS011;4386;51.236;6.742;2022-08-01T05:10:03;17.77;;;13.27;;
8698;SDS011;4386;51.236;6.742;2022-08-01T05:11:06;30.17;;;14.57;;
8698;SDS011;4386;51.236;6.742;2022-08-01T05:12:09;25.10;;;14.17;;
8698;SDS011;4386;51.236;6.742;2022-08-01T05:13:11;20.57;;;14.60;;
8698;SDS011;4386;51.236;6.742;2022-08-01T05:14:14;27.03;;;15.57;;
8698;SDS011;4386;51.236;6.742;2022-08-01T05:15:16;20.33;;;13.20;;
8698;SDS011;4386;51.236;6.742;2022-08-01T05:16:19;21.53;;;14.20;;
8698;SDS011;4386;51.236;6.742;2022-08-01T05:17:20;22.60;;;13.97;;
8698;SDS011;4386;51.236;6.742;2022-08-01T05:18:23;24.03;;;13.90;;
8698;SDS011;4386;51.236;6.742;2022-08-01T05:19:28;21.07;;;14.40;;
8698;SDS011;4386;51.236;6.742;2022-08-01T05:20:34;17.80;;;13.23;;
8698;SDS011;4386;51.236;6.742;2022-08-01T05:21:36;18.23;;;13.27;;
8698;SDS011;4386;51.236;6.742;2022-08-01T05:22:39;25.50;;;14.77;;
8698;SDS011;4386;51.236;6.742;2022-08-01T05:23:41;18.67;;;12.67;;
8698;SDS011;4386;51.236;6.742;2022-08-01T05:24:43;23.83;;;12.67;;
8698;SDS011;4386;51.236;6.742;2022-08-01T05:25:49;19.67;;;15.00;;
8698;SDS011;4386;51.236;6.742;2022-08-01T05:26:58;28.00;;;13.10;;
8698;SDS011;4386;51.236;6.742;2022-08-01T05:28:03;23.57;;;14.30;;
8698;SDS011;4386;51.236;6.742;2022-08-01T05:29:06;20.97;;;14.10;;
8698;SDS011;4386;51.236;6.742;2022-08-01T05:30:09;19.30;;;14.57;;
8698;SDS011;4386;51.236;6.742;2022-08-01T05:31:11;23.30;;;14.23;;
8698;SDS011;4386;51.236;6.742;2022-08-01T05:32:14;19.97;;;13.93;;
8698;SDS011;4386;51.236;6.742;2022-08-01T05:33:15;17.57;;;13.50;;
8698;SDS011;4386;51.236;6.742;2022-08-01T05:34:18;23.00;;;14.53;;
8698;SDS011;4386;51.236;6.742;2022-08-01T05:35:20;20.70;;;14.20;;
8698;SDS011;4386;51.236;6.742;2022-08-01T05:36:24;20.90;;;13.20;;
8698;SDS011;4386;51.236;6.742;2022-08-01T05:37:26;24.90;;;13.53;;
8698;SDS011;4386;51.236;6.742;2022-08-01T05:38:28;19.40;;;14.43;;
8698;SDS011;4386;51.236;6.742;2022-08-01T05:39:30;22.80;;;13.70;;
8698;SDS011;4386;51.236;6.742;2022-08-01T05:40:33;20.00;;;14.30;;
8698;SDS011;4386;51.236;6.742;2022-08-01T05:41:36;22.47;;;13.20;;
8698;SDS011;4386;51.236;6.742;2022-08-01T05:42:39;20.13;;;13.77;;
8698;SDS011;4386;51.236;6.742;2022-08-01T05:43:41;20.50;;;14.07;;
8698;SDS011;4386;51.236;6.742;2022-08-01T05:44:43;18.60;;;14.47;;
8698;SDS011;4386;51.236;6.742;2022-08-01T05:45:45;21.37;;;14.20;;
8698;SDS011;4386;51.236;6.742;2022-08-01T05:46:48;21.03;;;14.00;;
8698;SDS011;4386;51.236;6.742;2022-08-01T05:47:49;27.90;;;15.17;;
8698;SDS011;4386;51.236;6.742;2022-08-01T05:48:52;21.50;;;14.10;;
8698;SDS011;4386;51.236;6.742;2022-08-01T05:49:54;24.43;;;13.17;;
8698;SDS011;4386;51.236;6.742;2022-08-01T05:50:57;19.20;;;13.33;;
8698;SDS011;4386;51.236;6.742;2022-08-01T05:52:00;23.47;;;13.80;;
8698;SDS011;4386;51.236;6.742;2022-08-01T05:53:04;21.20;;;13.30;;
8698;SDS011;4386;51.236;6.742;2022-08-01T05:54:05;18.47;;;13.43;;
8698;SDS011;4386;51.236;6.742;2022-08-01T05:55:08;16.53;;;13.50;;
8698;SDS011;4386;51.236;6.742;2022-08-01T05:56:10;22.10;;;14.00;;
8698;SDS011;4386;51.236;6.742;2022-08-01T05:57:13;25.23;;;14.20;;
8698;SDS011;4386;51.236;6.742;2022-08-01T05:58:15;18.83;;;14.13;;
8698;SDS011;4386;51.236;6.742;2022-08-01T05:59:17;22.57;;;15.23;;
8698;SDS011;4386;51.236;6.742;2022-08-01T06:00:22;19.07;;;13.53;;
8698;SDS011;4386;51.236;6.742;2022-08-01T06:01:23;23.93;;;14.77;;
8698;SDS011;4386;51.236;6.742;2022-08-01T06:02:26;23.43;;;14.00;;
8698;SDS011;4386;51.236;6.742;2022-08-01T06:03:29;23.10;;;14.20;;
8698;SDS011;4386;51.236;6.742;2022-08-01T06:04:34;20.03;;;14.20;;
8698;SDS011;4386;51.236;6.742;2022-08-01T06:05:36;18.37;;;13.20;;
8698;SDS011;4386;51.236;6.742;2022-08-01T06:06:38;22.60;;;13.27;;
8698;SDS011;4386;51.236;6.742;2022-08-01T06:07:42;18.07;;;13.10;;
8698;SDS011;4386;51.236;6.742;2022-08-01T06:08:44;18.73;;;13.17;;
8698;SDS011;4386;51.236;6.742;2022-08-01T06:09:46;19.03;;;12.70;;
8698;SDS011;4386;51.236;6.742;2022-08-01T06:10:48;20.70;;;12.20;;
8698;SDS011;4386;51.236;6.742;2022-08-01T06:11:50;20.60;;;13.70;;
8698;SDS011;4386;51.236;6.742;2022-08-01T06:12:53;19.67;;;13.10;;
8698;SDS011;4386;51.236;6.742;2022-08-01T06:13:55;17.97;;;12.23;;
8698;SDS011;4386;51.236;6.742;2022-08-01T06:14:57;21.10;;;14.13;;
8698;SDS011;4386;51.236;6.742;2022-08-01T06:15:59;18.60;;;13.70;;
8698;SDS011;4386;51.236;6.742;2022-08-01T06:17:02;18.80;;;13.63;;
8698;SDS011;4386;51.236;6.742;2022-08-01T06:18:04;18.80;;;13.00;;
8698;SDS011;4386;51.236;6.742;2022-08-01T06:19:06;16.73;;;12.70;;
8698;SDS011;4386;51.236;6.742;2022-08-01T06:20:08;19.23;;;13.57;;
8698;SDS011;4386;51.236;6.742;2022-08-01T06:21:12;22.40;;;12.90;;
8698;SDS011;4386;51.236;6.742;2022-08-01T06:22:13;17.40;;;13.13;;
8698;SDS011;4386;51.236;6.742;2022-08-01T06:23:18;22.13;;;12.50;;
8698;SDS011;4386;51.236;6.742;2022-08-01T06:24:32;20.13;;;13.50;;
8698;SDS011;4386;51.236;6.742;2022-08-01T06:25:35;21.23;;;12.47;;
8698;SDS011;4386;51.236;6.742;2022-08-01T06:26:36;19.47;;;13.60;;
8698;SDS011;4386;51.236;6.742;2022-08-01T06:27:39;16.90;;;12.10;;
8698;SDS011;4386;51.236;6.742;2022-08-01T06:28:41;20.70;;;12.77;;
8698;SDS011;4386;51.236;6.742;2022-08-01T06:29:43;18.47;;;12.60;;
8698;SDS011;4386;51.236;6.742;2022-08-01T06:30:54;17.27;;;13.40;;
8698;SDS011;4386;51.236;6.742;2022-08-01T06:31:57;16.37;;;13.07;;
8698;SDS011;4386;51.236;6.742;2022-08-01T06:32:59;17.53;;;12.37;;
8698;SDS011;4386;51.236;6.742;2022-08-01T06:34:02;18.73;;;12.93;;
8698;SDS011;4386;51.236;6.742;2022-08-01T06:35:04;17.83;;;13.70;;
8698;SDS011;4386;51.236;6.742;2022-08-01T06:36:07;18.83;;;12.97;;
8698;SDS011;4386;51.236;6.742;2022-08-01T06:37:10;17.97;;;12.80;;
8698;SDS011;4386;51.236;6.742;2022-08-01T06:38:14;26.77;;;13.17;;